Time;durP1;ratioP1;P1;durP2;ratioP2;P2;SDS_P1;SDS_P2;PMS_P1;PMS_P2;Temp;Humidity;BMP_temperature;BMP_pressure;BME280_temperature;BME280_humidity;BME280_pressure;Samples;Min_cycle;Max_cycle;Signal;HPM_P1;HPM_P2
2023/09/04 00:01:42;;;;;;;;;;;26.30;69.70;;;;;;5067202;28;19951;-34
2023/09/04 00:04:08;;;;;;;;;;;26.30;69.80;;;;;;5067574;28;19925;-34
2023/09/04 00:06:34;;;;;;;;;;;26.30;69.50;;;;;;5075144;28;19919;-34
2023/09/04 00:09:00;;;;;;;;;;;26.30;69.40;;;;;;5067135;28;19934;-34
2023/09/04 00:11:26;;;;;;;;;;;26.30;69.30;;;;;;5074701;28;19920;-34
2023/09/04 00:13:52;;;;;;;;;;;26.30;69.20;;;;;;5067036;28;20426;-34
2023/09/04 00:16:18;;;;;;;;;;;26.30;69.20;;;;;;5063841;28;19938;-34
2023/09/04 00:18:44;;;;;;;;;;;26.30;69.20;;;;;;5067403;28;20297;-34
2023/09/04 00:21:09;;;;;;;;;;;26.30;69.70;;;;;;5059609;28;19911;-34
2023/09/04 00:23:35;;;;;;;;;;;26.30;69.70;;;;;;5077467;28;19916;-34
2023/09/04 00:26:01;;;;;;;;;;;26.30;70.00;;;;;;5076412;28;19919;-34
2023/09/04 00:28:27;;;;;;;;;;;26.20;70.10;;;;;;5067252;28;19920;-34
2023/09/04 00:30:53;;;;;;;;;;;26.30;70.40;;;;;;5071353;28;19952;-34
2023/09/04 00:33:19;;;;;;;;;;;26.30;70.60;;;;;;5076755;28;20369;-34
2023/09/04 00:35:45;;;;;;;;;;;26.30;70.70;;;;;;5074698;28;19960;-34
2023/09/04 00:38:11;;;;;;;;;;;26.20;70.60;;;;;;5077071;28;19919;-34
2023/09/04 00:40:36;;;;;;;;;;;26.20;70.50;;;;;;5081287;28;19912;-34
2023/09/04 00:43:02;;;;;;;;;;;26.20;70.30;;;;;;5074747;28;19920;-35
2023/09/04 00:45:28;;;;;;;;;;;26.20;70.60;;;;;;5070765;28;19970;-34
2023/09/04 00:47:54;;;;;;;;;;;26.20;70.60;;;;;;5068447;28;19908;-34
2023/09/04 00:50:23;;;;;;;;;;;26.20;70.50;;;;;;5075904;28;19912;-34
2023/09/04 00:52:54;;;;;;;;;;;26.20;70.50;;;;;;5048338;28;19909;-34
2023/09/04 00:55:20;;;;;;;;;;;26.20;70.70;;;;;;5082232;28;20026;-34
2023/09/04 00:57:46;;;;;;;;;;;26.20;70.70;;;;;;5072729;28;20449;-34
2023/09/04 01:00:19;;;;;;;;;;;26.20;70.70;;;;;;5080648;28;19931;-34
2023/09/04 01:02:45;;;;;;;;;;;26.20;70.80;;;;;;5070683;28;19912;-34
2023/09/04 01:05:10;;;;;;;;;;;26.20;70.80;;;;;;5083900;28;20039;-34
2023/09/04 01:07:37;;;;;;;;;;;26.20;70.70;;;;;;5080918;28;19920;-34
2023/09/04 01:10:03;;;;;;;;;;;26.20;70.80;;;;;;5072688;28;19954;-34
2023/09/04 01:12:33;;;;;;;;;;;26.10;70.70;;;;;;5073975;28;19917;-34
2023/09/04 01:14:59;;;;;;;;;;;26.10;70.80;;;;;;5052850;28;19918;-34
2023/09/04 01:17:25;;;;;;;;;;;26.10;70.80;;;;;;5072691;28;19955;-34
2023/09/04 01:19:51;;;;;;;;;;;26.10;71.00;;;;;;5063636;28;19908;-34
2023/09/04 01:22:17;;;;;;;;;;;26.10;70.80;;;;;;5070413;28;19912;-34
2023/09/04 01:24:43;;;;;;;;;;;26.10;70.80;;;;;;5061862;28;20281;-35
2023/09/04 01:27:25;;;;;;;;;;;26.10;71.60;;;;;;5058758;28;20379;-33
2023/09/04 01:29:55;;;;;;;;;;;26.10;70.70;;;;;;5047149;28;19909;-34
2023/09/04 01:32:26;;;;;;;;;;;26.10;70.70;;;;;;5075318;28;19916;-34
2023/09/04 01:34:52;;;;;;;;;;;26.10;70.60;;;;;;5055403;28;20521;-34
2023/09/04 01:37:18;;;;;;;;;;;26.10;70.60;;;;;;5072885;28;19923;-34
2023/09/04 01:39:44;;;;;;;;;;;26.10;70.60;;;;;;5069322;28;19912;-35
2023/09/04 01:42:10;;;;;;;;;;;26.10;70.60;;;;;;5075938;28;19909;-34
2023/09/04 01:44:36;;;;;;;;;;;26.10;71.20;;;;;;5072746;28;19979;-34
2023/09/04 01:47:02;;;;;;;;;;;26.10;70.70;;;;;;5071703;28;20706;-34
2023/09/04 01:49:28;;;;;;;;;;;26.00;70.60;;;;;;5067577;28;19978;-34
2023/09/04 01:51:58;;;;;;;;;;;26.00;70.60;;;;;;5066285;28;19908;-34
2023/09/04 01:54:24;;;;;;;;;;;26.00;70.70;;;;;;5066019;28;20410;-34
2023/09/04 01:56:49;;;;;;;;;;;26.00;70.70;;;;;;5077717;28;19975;-34
2023/09/04 01:59:15;;;;;;;;;;;26.00;70.80;;;;;;5072096;28;20485;-34
2023/09/04 02:01:41;;;;;;;;;;;26.00;70.70;;;;;;5072249;28;19912;-34
2023/09/04 02:04:07;;;;;;;;;;;26.00;70.80;;;;;;5071024;28;19978;-34
2023/09/04 02:06:33;;;;;;;;;;;26.00;70.80;;;;;;5065609;28;19919;-34
2023/09/04 02:08:59;;;;;;;;;;;26.00;70.90;;;;;;5072088;28;19913;-34
2023/09/04 02:11:25;;;;;;;;;;;26.00;70.80;;;;;;5072925;28;20320;-34
2023/09/04 02:13:50;;;;;;;;;;;25.90;70.70;;;;;;5071778;28;19915;-34
2023/09/04 02:16:16;;;;;;;;;;;25.90;70.70;;;;;;5062383;28;19912;-35
2023/09/04 02:18:43;;;;;;;;;;;25.90;70.70;;;;;;5057472;28;19924;-34
2023/09/04 02:21:09;;;;;;;;;;;25.90;71.30;;;;;;5067363;28;19915;-34
2023/09/04 02:23:35;;;;;;;;;;;25.90;70.40;;;;;;5071072;28;19908;-34
2023/09/04 02:26:02;;;;;;;;;;;25.90;70.50;;;;;;5066231;28;19956;-34
2023/09/04 02:28:28;;;;;;;;;;;25.90;70.50;;;;;;5078118;28;19916;-34
2023/09/04 02:30:54;;;;;;;;;;;25.90;70.30;;;;;;5070831;28;19909;-34
2023/09/04 02:33:20;;;;;;;;;;;25.90;70.60;;;;;;5078892;28;19923;-33
2023/09/04 02:35:46;;;;;;;;;;;25.80;70.60;;;;;;5070323;28;20475;-33
2023/09/04 02:38:12;;;;;;;;;;;25.80;70.70;;;;;;5071447;28;19912;-34
2023/09/04 02:40:38;;;;;;;;;;;25.80;70.70;;;;;;5075254;28;19980;-33
2023/09/04 02:43:04;;;;;;;;;;;25.80;70.70;;;;;;5068337;28;19931;-33
2023/09/04 02:45:29;;;;;;;;;;;25.80;70.80;;;;;;5070206;28;19929;-34
2023/09/04 02:47:55;;;;;;;;;;;25.80;70.90;;;;;;5076729;28;19909;-34
2023/09/04 02:50:21;;;;;;;;;;;25.80;70.90;;;;;;5064968;28;19919;-34
2023/09/04 02:52:47;;;;;;;;;;;25.80;70.80;;;;;;5064360;28;19921;-34
2023/09/04 02:55:13;;;;;;;;;;;25.80;70.70;;;;;;5071069;28;19909;-34
2023/09/04 02:57:39;;;;;;;;;;;25.80;70.60;;;;;;5063872;28;20289;-34
2023/09/04 03:00:08;;;;;;;;;;;25.70;70.40;;;;;;5068901;28;19912;-34
2023/09/04 03:02:34;;;;;;;;;;;25.70;70.40;;;;;;5064475;28;19927;-34
2023/09/04 03:05:00;;;;;;;;;;;25.70;70.30;;;;;;5071025;28;19917;-34
2023/09/04 03:07:27;;;;;;;;;;;25.70;70.00;;;;;;5065671;28;19920;-34
2023/09/04 03:09:56;;;;;;;;;;;25.70;70.10;;;;;;5074800;28;19912;-34
2023/09/04 03:12:23;;;;;;;;;;;25.70;70.20;;;;;;5066409;28;20027;-34
2023/09/04 03:14:54;;;;;;;;;;;25.70;70.40;;;;;;5052843;28;19909;-34
2023/09/04 03:17:20;;;;;;;;;;;25.70;70.60;;;;;;5069476;28;19913;-35
2023/09/04 03:19:46;;;;;;;;;;;25.70;70.60;;;;;;5080517;28;19912;-35
2023/09/04 03:22:12;;;;;;;;;;;25.60;70.60;;;;;;5070596;28;19935;-34
2023/09/04 03:24:38;;;;;;;;;;;25.60;70.60;;;;;;5075089;28;19925;-34
2023/09/04 03:27:04;;;;;;;;;;;25.60;70.60;;;;;;5074304;28;19912;-34
2023/09/04 03:29:30;;;;;;;;;;;25.60;70.90;;;;;;5076150;28;19917;-34
2023/09/04 03:31:56;;;;;;;;;;;25.60;70.60;;;;;;5072431;28;19935;-34
2023/09/04 03:34:22;;;;;;;;;;;25.60;70.50;;;;;;5076759;28;19913;-34
2023/09/04 03:36:48;;;;;;;;;;;25.60;70.50;;;;;;5079028;28;19930;-34
2023/09/04 03:39:14;;;;;;;;;;;25.60;70.50;;;;;;5077907;28;19980;-33
2023/09/04 03:41:40;;;;;;;;;;;25.60;70.40;;;;;;5068483;28;19909;-34
2023/09/04 03:44:06;;;;;;;;;;;25.60;70.40;;;;;;5068626;28;19969;-34
2023/09/04 03:46:32;;;;;;;;;;;25.50;70.40;;;;;;5067692;28;20443;-34
2023/09/04 03:48:58;;;;;;;;;;;25.50;70.50;;;;;;5075218;28;19913;-34
2023/09/04 03:51:24;;;;;;;;;;;25.50;70.50;;;;;;5066770;28;19913;-34
2023/09/04 03:53:50;;;;;;;;;;;25.50;70.40;;;;;;5061407;28;19919;-34
2023/09/04 03:56:16;;;;;;;;;;;25.50;70.60;;;;;;5067528;28;19911;-34
2023/09/04 03:58:42;;;;;;;;;;;25.40;70.50;;;;;;5060231;28;20015;-34
2023/09/04 04:01:08;;;;;;;;;;;25.40;71.40;;;;;;5074609;28;19918;-34
2023/09/04 04:03:34;;;;;;;;;;;25.40;70.60;;;;;;5069116;28;19912;-34
2023/09/04 04:06:07;;;;;;;;;;;25.40;70.70;;;;;;5062050;28;19920;-34
2023/09/04 04:08:33;;;;;;;;;;;25.40;70.70;;;;;;5082912;28;19913;-35
2023/09/04 04:10:59;;;;;;;;;;;25.40;70.70;;;;;;5073299;28;19919;-34
2023/09/04 04:13:25;;;;;;;;;;;25.40;70.90;;;;;;5067794;28;19955;-34
2023/09/04 04:15:51;;;;;;;;;;;25.40;70.80;;;;;;5063783;28;19915;-35
2023/09/04 04:18:17;;;;;;;;;;;25.40;70.80;;;;;;5074230;28;19913;-34
2023/09/04 04:20:44;;;;;;;;;;;25.30;70.70;;;;;;5070872;28;20322;-34
2023/09/04 04:23:10;;;;;;;;;;;25.30;70.60;;;;;;5070743;28;19916;-34
2023/09/04 04:25:36;;;;;;;;;;;25.30;70.70;;;;;;5066483;28;19917;-34
2023/09/04 04:28:02;;;;;;;;;;;25.30;70.70;;;;;;5073191;28;19919;-34
2023/09/04 04:30:28;;;;;;;;;;;25.30;70.70;;;;;;5069280;28;19913;-34
2023/09/04 04:32:54;;;;;;;;;;;25.30;70.80;;;;;;5069347;28;19909;-34
2023/09/04 04:35:20;;;;;;;;;;;25.30;70.80;;;;;;5075943;28;19934;-34
2023/09/04 04:37:46;;;;;;;;;;;25.20;70.80;;;;;;5073433;28;19976;-34
2023/09/04 04:40:12;;;;;;;;;;;25.20;70.90;;;;;;5081154;28;20003;-34
2023/09/04 04:42:37;;;;;;;;;;;25.20;70.90;;;;;;5068329;28;20443;-34
2023/09/04 04:45:03;;;;;;;;;;;25.20;70.80;;;;;;5070360;28;19917;-34
2023/09/04 04:47:29;;;;;;;;;;;25.20;70.80;;;;;;5074186;28;19912;-34
2023/09/04 04:49:55;;;;;;;;;;;25.20;71.00;;;;;;5070136;28;19912;-35
2023/09/04 04:52:21;;;;;;;;;;;25.20;71.00;;;;;;5067616;28;19940;-34
2023/09/04 04:54:47;;;;;;;;;;;25.20;71.00;;;;;;5077901;28;19976;-34
2023/09/04 04:57:13;;;;;;;;;;;25.20;71.00;;;;;;5075652;28;19909;-34
2023/09/04 04:59:39;;;;;;;;;;;25.10;71.10;;;;;;5080327;28;19948;-34
2023/09/04 05:02:05;;;;;;;;;;;25.10;71.00;;;;;;5066282;28;19913;-35
2023/09/04 05:04:33;;;;;;;;;;;25.10;70.90;;;;;;5074812;28;19928;-34
2023/09/04 05:06:59;;;;;;;;;;;25.10;71.00;;;;;;5077878;28;19912;-35
2023/09/04 05:09:26;;;;;;;;;;;25.10;71.10;;;;;;5073951;28;19916;-34
2023/09/04 05:11:51;;;;;;;;;;;25.10;71.10;;;;;;5065941;28;19909;-34
2023/09/04 05:14:17;;;;;;;;;;;25.10;71.10;;;;;;5065475;28;19919;-34
2023/09/04 05:16:43;;;;;;;;;;;25.00;71.00;;;;;;5069015;28;19909;-34
2023/09/04 05:19:09;;;;;;;;;;;25.10;71.20;;;;;;5078898;28;19908;-34
2023/09/04 05:21:35;;;;;;;;;;;25.00;71.30;;;;;;5073788;28;19919;-35
2023/09/04 05:24:01;;;;;;;;;;;25.00;71.20;;;;;;5071829;28;19916;-34
2023/09/04 05:26:26;;;;;;;;;;;25.00;71.30;;;;;;5081997;28;20699;-35
2023/09/04 05:28:52;;;;;;;;;;;25.00;71.20;;;;;;5066045;28;19922;-34
2023/09/04 05:31:18;;;;;;;;;;;25.00;71.20;;;;;;5065948;28;19923;-34
2023/09/04 05:33:44;;;;;;;;;;;25.00;71.10;;;;;;5076383;28;19916;-34
2023/09/04 05:36:10;;;;;;;;;;;25.00;71.40;;;;;;5075354;28;19920;-34
2023/09/04 05:38:36;;;;;;;;;;;24.90;71.10;;;;;;5082814;28;19919;-34
2023/09/04 05:41:03;;;;;;;;;;;24.90;71.40;;;;;;5065227;28;19940;-34
2023/09/04 05:43:29;;;;;;;;;;;24.90;71.30;;;;;;5066150;28;19922;-34
2023/09/04 05:45:55;;;;;;;;;;;24.90;71.30;;;;;;5073106;28;19908;-34
2023/09/04 05:48:21;;;;;;;;;;;24.90;71.30;;;;;;5081623;28;19912;-34
2023/09/04 05:50:46;;;;;;;;;;;24.90;71.40;;;;;;5071072;28;19919;-34
2023/09/04 05:53:12;;;;;;;;;;;24.90;71.40;;;;;;5065128;28;20297;-34
2023/09/04 05:55:40;;;;;;;;;;;24.80;71.30;;;;;;5064778;28;19916;-34
2023/09/04 05:58:06;;;;;;;;;;;24.80;71.30;;;;;;5071663;28;19930;-34
2023/09/04 06:00:32;;;;;;;;;;;24.80;71.40;;;;;;5068417;28;19913;-34
2023/09/04 06:02:59;;;;;;;;;;;24.80;71.60;;;;;;5082994;28;19920;-34
2023/09/04 06:05:25;;;;;;;;;;;24.80;71.50;;;;;;5081852;28;19977;-34
2023/09/04 06:07:51;;;;;;;;;;;24.80;71.50;;;;;;5082992;28;19905;-34
2023/09/04 06:10:17;;;;;;;;;;;24.80;71.60;;;;;;5068020;28;19912;-34
2023/09/04 06:12:43;;;;;;;;;;;24.80;71.70;;;;;;5054753;28;19931;-34
2023/09/04 06:15:09;;;;;;;;;;;24.80;71.60;;;;;;5069413;28;19967;-35
2023/09/04 06:17:35;;;;;;;;;;;24.70;71.50;;;;;;5079296;28;19935;-34
2023/09/04 06:20:02;;;;;;;;;;;24.70;71.50;;;;;;5068606;28;20617;-34
2023/09/04 06:22:28;;;;;;;;;;;24.70;71.60;;;;;;5066934;28;19920;-37
2023/09/04 06:24:55;;;;;;;;;;;24.70;71.50;;;;;;5076351;28;19913;-34
2023/09/04 06:27:20;;;;;;;;;;;24.70;71.60;;;;;;5072027;28;19912;-34
2023/09/04 06:29:46;;;;;;;;;;;24.70;71.50;;;;;;5057739;28;19943;-34
2023/09/04 06:32:14;;;;;;;;;;;24.70;71.50;;;;;;5081509;28;19908;-33
2023/09/04 06:34:40;;;;;;;;;;;24.60;71.50;;;;;;5063874;28;19908;-34
2023/09/04 06:37:06;;;;;;;;;;;24.60;71.50;;;;;;5062954;28;19917;-34
2023/09/04 06:39:32;;;;;;;;;;;24.60;71.50;;;;;;5079763;28;19913;-34
2023/09/04 06:41:58;;;;;;;;;;;24.60;71.60;;;;;;5065690;28;19919;-34
2023/09/04 06:44:44;;;;;;;;;;;24.60;71.50;;;;;;5070838;28;19916;-34
2023/09/04 06:47:09;;;;;;;;;;;24.60;71.70;;;;;;4996094;28;19909;-34
2023/09/04 06:49:35;;;;;;;;;;;24.60;71.70;;;;;;4992645;28;19909;-34
2023/09/04 06:52:01;;;;;;;;;;;24.60;71.70;;;;;;4995651;28;20014;-34
2023/09/04 06:54:27;;;;;;;;;;;24.50;71.70;;;;;;4996410;28;19953;-34
2023/09/04 06:56:53;;;;;;;;;;;24.50;71.70;;;;;;4982673;28;19914;-34
2023/09/04 06:59:19;;;;;;;;;;;24.50;71.90;;;;;;4978423;28;19909;-34
2023/09/04 07:01:45;;;;;;;;;;;24.50;71.80;;;;;;4996980;28;19910;-34
2023/09/04 07:04:11;;;;;;;;;;;24.50;71.70;;;;;;4988806;28;19929;-34
2023/09/04 07:06:37;;;;;;;;;;;24.50;71.80;;;;;;4991829;28;19946;-34
2023/09/04 07:09:03;;;;;;;;;;;24.50;71.70;;;;;;4970234;28;19920;-34
2023/09/04 07:11:29;;;;;;;;;;;24.50;71.80;;;;;;4984149;28;19963;-34
2023/09/04 07:13:55;;;;;;;;;;;24.50;71.90;;;;;;4981902;28;19910;-34
2023/09/04 07:16:21;;;;;;;;;;;24.50;71.70;;;;;;4993378;28;19932;-34
2023/09/04 07:18:47;;;;;;;;;;;24.40;71.70;;;;;;4982346;28;19917;-34
2023/09/04 07:21:12;;;;;;;;;;;24.40;71.90;;;;;;4988236;28;19914;-34
2023/09/04 07:23:38;;;;;;;;;;;24.40;71.80;;;;;;5018713;28;19912;-34
2023/09/04 07:26:04;;;;;;;;;;;24.40;71.90;;;;;;5081167;28;19918;-34
2023/09/04 07:28:30;;;;;;;;;;;24.40;71.90;;;;;;5055614;28;20007;-34
2023/09/04 07:31:22;;;;;;;;;;;24.40;72.00;;;;;;5076862;28;19924;-34
2023/09/04 07:33:48;;;;;;;;;;;24.30;72.00;;;;;;5061201;28;19913;-34
2023/09/04 07:36:14;;;;;;;;;;;24.30;71.90;;;;;;5051087;28;19920;-34
2023/09/04 07:38:40;;;;;;;;;;;24.30;71.90;;;;;;5055308;28;20318;-34
2023/09/04 07:41:06;;;;;;;;;;;24.30;71.90;;;;;;5070856;28;19905;-34
2023/09/04 07:43:31;;;;;;;;;;;24.30;71.90;;;;;;5065246;28;20046;-34
2023/09/04 07:45:57;;;;;;;;;;;24.30;72.00;;;;;;5073489;28;19966;-34
2023/09/04 07:48:23;;;;;;;;;;;24.30;72.00;;;;;;5063400;28;19912;-34
2023/09/04 07:50:50;;;;;;;;;;;24.30;72.00;;;;;;5073205;28;19908;-34
2023/09/04 07:53:15;;;;;;;;;;;24.30;72.00;;;;;;5066329;28;20353;-34
2023/09/04 07:55:42;;;;;;;;;;;24.30;71.90;;;;;;5060003;28;19919;-34
2023/09/04 07:58:08;;;;;;;;;;;24.20;72.00;;;;;;5070214;28;19908;-34
2023/09/04 08:00:34;;;;;;;;;;;24.20;72.00;;;;;;5077797;28;19955;-34
2023/09/04 08:03:00;;;;;;;;;;;24.20;72.00;;;;;;5052377;28;19943;-34
2023/09/04 08:05:25;;;;;;;;;;;24.20;72.10;;;;;;5077610;28;19964;-34
2023/09/04 08:07:51;;;;;;;;;;;24.20;72.10;;;;;;5063430;28;19920;-34
2023/09/04 08:10:17;;;;;;;;;;;24.20;72.10;;;;;;5073937;28;19909;-34
2023/09/04 08:12:43;;;;;;;;;;;24.20;72.20;;;;;;5060677;28;19912;-34
2023/09/04 08:15:10;;;;;;;;;;;24.10;72.20;;;;;;5071362;28;19928;-34
2023/09/04 08:17:36;;;;;;;;;;;24.10;72.10;;;;;;5080797;28;19908;-34
2023/09/04 08:20:02;;;;;;;;;;;24.20;72.30;;;;;;5072100;28;19908;-34
2023/09/04 08:22:28;;;;;;;;;;;24.10;72.20;;;;;;5067246;28;19924;-34
2023/09/04 08:24:54;;;;;;;;;;;24.10;72.20;;;;;;5071510;28;19912;-34
2023/09/04 08:27:20;;;;;;;;;;;24.10;72.30;;;;;;5076608;28;19912;-33
2023/09/04 08:29:46;;;;;;;;;;;24.10;72.20;;;;;;5070739;28;19955;-34
2023/09/04 08:32:12;;;;;;;;;;;24.10;72.30;;;;;;5077533;28;19912;-34
2023/09/04 08:34:38;;;;;;;;;;;24.10;72.30;;;;;;5074512;28;19913;-34
2023/09/04 08:37:04;;;;;;;;;;;24.10;72.30;;;;;;5079422;28;19916;-34
2023/09/04 08:39:30;;;;;;;;;;;24.10;72.30;;;;;;5075746;28;19919;-35
2023/09/04 08:41:56;;;;;;;;;;;24.00;72.20;;;;;;5064291;28;19913;-34
2023/09/04 08:44:21;;;;;;;;;;;24.00;72.20;;;;;;5067046;28;19990;-34
2023/09/04 08:46:47;;;;;;;;;;;24.00;72.30;;;;;;5066919;28;19912;-34
2023/09/04 08:49:14;;;;;;;;;;;24.00;72.30;;;;;;5066123;28;19909;-34
2023/09/04 08:51:40;;;;;;;;;;;24.00;72.40;;;;;;5065785;28;19915;-34
2023/09/04 08:54:06;;;;;;;;;;;24.00;72.30;;;;;;5071616;28;20301;-34
2023/09/04 08:56:32;;;;;;;;;;;24.00;72.40;;;;;;5064075;28;19920;-34
2023/09/04 08:58:58;;;;;;;;;;;24.00;72.50;;;;;;5073098;28;19913;-34
2023/09/04 09:01:26;;;;;;;;;;;24.00;72.50;;;;;;5073986;28;20377;-34
2023/09/04 09:03:52;;;;;;;;;;;24.00;72.50;;;;;;5073825;28;19934;-34
2023/09/04 09:06:18;;;;;;;;;;;24.00;73.30;;;;;;5074057;28;19940;-34
2023/09/04 09:08:44;;;;;;;;;;;24.00;72.50;;;;;;5062549;28;19912;-34
2023/09/04 09:11:12;;;;;;;;;;;23.90;72.50;;;;;;5059283;28;19908;-34
2023/09/04 09:13:39;;;;;;;;;;;23.90;72.50;;;;;;5067675;28;19917;-34
2023/09/04 09:16:04;;;;;;;;;;;23.90;72.50;;;;;;5052702;28;20004;-34
2023/09/04 09:18:42;;;;;;;;;;;23.90;72.60;;;;;;5081151;28;19916;-34
2023/09/04 09:21:24;;;;;;;;;;;23.90;72.50;;;;;;5083426;28;19913;-34
2023/09/04 09:24:06;;;;;;;;;;;23.90;72.60;;;;;;5083487;28;19913;-34
2023/09/04 09:26:31;;;;;;;;;;;23.90;72.60;;;;;;5075566;28;19988;-34
2023/09/04 09:28:57;;;;;;;;;;;23.80;72.60;;;;;;5071179;28;19913;-34
2023/09/04 09:31:23;;;;;;;;;;;23.80;72.50;;;;;;5080644;28;19916;-34
2023/09/04 09:33:49;;;;;;;;;;;23.80;72.70;;;;;;5078942;28;19931;-34
2023/09/04 09:36:15;;;;;;;;;;;23.80;72.70;;;;;;5072269;28;19920;-34
2023/09/04 09:38:45;;;;;;;;;;;23.80;72.70;;;;;;5064880;28;19913;-34
2023/09/04 09:41:13;;;;;;;;;;;23.80;72.70;;;;;;5068804;28;19932;-34
2023/09/04 09:43:42;;;;;;;;;;;23.70;72.70;;;;;;5071708;28;19908;-34
2023/09/04 09:46:08;;;;;;;;;;;23.80;72.70;;;;;;5062389;28;20011;-34
2023/09/04 09:48:37;;;;;;;;;;;23.80;72.80;;;;;;5074530;28;19963;-35
2023/09/04 09:51:06;;;;;;;;;;;23.70;72.70;;;;;;5080479;28;19909;-34
2023/09/04 09:53:48;;;;;;;;;;;23.70;72.70;;;;;;5081044;28;19916;-34
2023/09/04 09:56:14;;;;;;;;;;;23.70;72.70;;;;;;5074828;28;19909;-34
2023/09/04 09:58:43;;;;;;;;;;;23.70;72.70;;;;;;5081029;28;20254;-34
2023/09/04 10:01:09;;;;;;;;;;;23.70;72.70;;;;;;5075308;28;19908;-34
2023/09/04 10:03:35;;;;;;;;;;;23.70;72.80;;;;;;5071575;28;20440;-34
2023/09/04 10:06:02;;;;;;;;;;;23.70;72.80;;;;;;5065484;28;19913;-34
2023/09/04 10:08:28;;;;;;;;;;;23.70;72.80;;;;;;5078603;28;20496;-34
2023/09/04 10:10:54;;;;;;;;;;;23.60;72.80;;;;;;5058726;28;19915;-34
2023/09/04 10:13:22;;;;;;;;;;;23.60;72.80;;;;;;5071975;28;19947;-34
2023/09/04 10:15:48;;;;;;;;;;;23.60;72.90;;;;;;5069072;28;19932;-34
2023/09/04 10:18:14;;;;;;;;;;;23.60;72.90;;;;;;5053500;28;19919;-34
2023/09/04 10:20:40;;;;;;;;;;;23.60;72.90;;;;;;5071662;28;19915;-34
2023/09/04 10:23:08;;;;;;;;;;;23.60;73.00;;;;;;5068787;28;19908;-34
2023/09/04 10:25:53;;;;;;;;;;;23.60;73.00;;;;;;5073561;28;19963;-34
2023/09/04 10:28:21;;;;;;;;;;;23.60;72.90;;;;;;5072849;28;19912;-34
2023/09/04 10:30:49;;;;;;;;;;;23.60;73.00;;;;;;5076117;28;19912;-34
2023/09/04 10:33:15;;;;;;;;;;;23.50;72.90;;;;;;5064958;28;19916;-34
2023/09/04 10:35:41;;;;;;;;;;;23.50;73.00;;;;;;5071081;28;19972;-34
2023/09/04 10:38:07;;;;;;;;;;;23.50;72.90;;;;;;5066467;28;19928;-34
2023/09/04 10:40:33;;;;;;;;;;;23.50;72.90;;;;;;5064470;28;19912;-34
2023/09/04 10:43:03;;;;;;;;;;;23.50;73.00;;;;;;5072308;28;20016;-34
2023/09/04 10:45:29;;;;;;;;;;;23.50;73.00;;;;;;5066944;28;19954;-34
2023/09/04 10:47:56;;;;;;;;;;;23.50;73.00;;;;;;5077129;28;19913;-34
2023/09/04 10:50:28;;;;;;;;;;;23.50;73.10;;;;;;5077269;28;19987;-34
2023/09/04 10:52:54;;;;;;;;;;;23.50;73.00;;;;;;5072072;28;19908;-34
2023/09/04 10:55:20;;;;;;;;;;;23.50;73.10;;;;;;5071080;28;19912;-34
2023/09/04 10:57:59;;;;;;;;;;;23.50;73.10;;;;;;5077341;28;19917;-34
2023/09/04 11:00:34;;;;;;;;;;;23.40;73.00;;;;;;5071788;28;19931;-34
2023/09/04 11:03:13;;;;;;;;;;;23.40;73.00;;;;;;5069956;28;19915;-34
2023/09/04 11:05:58;;;;;;;;;;;23.40;73.10;;;;;;5073825;28;19920;-34
2023/09/04 11:08:30;;;;;;;;;;;23.40;73.20;;;;;;5063396;28;19908;-34
2023/09/04 11:10:59;;;;;;;;;;;23.30;73.10;;;;;;5069919;28;19934;-34
2023/09/04 11:13:25;;;;;;;;;;;23.40;73.20;;;;;;5065017;28;19947;-34
2023/09/04 11:15:54;;;;;;;;;;;23.40;73.10;;;;;;5075447;28;19930;-34
2023/09/04 11:18:21;;;;;;;;;;;23.30;73.10;;;;;;5073352;28;19913;-34
2023/09/04 11:20:46;;;;;;;;;;;23.30;73.20;;;;;;5073526;28;19976;-34
2023/09/04 11:23:13;;;;;;;;;;;23.30;73.20;;;;;;5066597;28;20250;-34
2023/09/04 11:25:38;;;;;;;;;;;23.30;73.20;;;;;;5073830;28;19972;-34
2023/09/04 11:28:06;;;;;;;;;;;23.30;73.20;;;;;;5082548;28;19916;-34
2023/09/04 11:30:32;;;;;;;;;;;23.30;73.10;;;;;;5073675;28;20000;-34
2023/09/04 11:32:59;;;;;;;;;;;23.30;73.10;;;;;;5074617;28;20637;-34
2023/09/04 11:35:28;;;;;;;;;;;23.30;73.20;;;;;;5064781;28;19955;-34
2023/09/04 11:37:54;;;;;;;;;;;23.30;73.20;;;;;;5076056;28;20460;-34
2023/09/04 11:40:21;;;;;;;;;;;23.30;73.30;;;;;;5074168;28;20305;-34
2023/09/04 11:42:48;;;;;;;;;;;23.20;73.30;;;;;;5070447;28;20007;-34
2023/09/04 11:45:14;;;;;;;;;;;23.20;73.30;;;;;;5066058;28;19924;-34
2023/09/04 11:47:40;;;;;;;;;;;23.20;73.30;;;;;;5066626;28;19919;-34
2023/09/04 11:50:12;;;;;;;;;;;23.20;73.30;;;;;;5054355;28;19908;-34
2023/09/04 11:52:39;;;;;;;;;;;23.20;73.40;;;;;;5074950;28;19920;-34
2023/09/04 11:55:06;;;;;;;;;;;23.20;73.40;;;;;;5073820;28;19913;-34
2023/09/04 11:57:32;;;;;;;;;;;23.20;73.40;;;;;;5050103;28;20011;-34
2023/09/04 11:59:58;;;;;;;;;;;23.20;73.40;;;;;;5075054;28;19920;-34
2023/09/04 12:02:24;;;;;;;;;;;23.20;73.40;;;;;;5074961;28;19909;-34
2023/09/04 12:04:52;;;;;;;;;;;23.20;73.40;;;;;;5080734;28;20266;-34
2023/09/04 12:07:18;;;;;;;;;;;23.20;73.40;;;;;;5079757;28;19912;-34
2023/09/04 12:09:44;;;;;;;;;;;23.10;73.40;;;;;;5074967;28;19935;-34
2023/09/04 12:12:11;;;;;;;;;;;23.10;73.30;;;;;;5065482;28;19916;-34
2023/09/04 12:14:42;;;;;;;;;;;23.10;73.50;;;;;;5074070;28;19940;-34
2023/09/04 12:17:09;;;;;;;;;;;23.10;73.50;;;;;;5073752;28;19948;-34
2023/09/04 12:19:35;;;;;;;;;;;23.10;73.50;;;;;;5057470;28;20004;-34
2023/09/04 12:22:11;;;;;;;;;;;23.10;73.50;;;;;;5070116;28;19912;-34
2023/09/04 12:24:37;;;;;;;;;;;23.10;73.60;;;;;;5073467;28;19935;-34
2023/09/04 12:27:03;;;;;;;;;;;23.10;73.50;;;;;;5073198;28;19912;-34
2023/09/04 12:29:29;;;;;;;;;;;23.10;73.60;;;;;;5074927;28;19924;-33
2023/09/04 12:31:56;;;;;;;;;;;23.00;73.50;;;;;;5070926;28;19909;-34
2023/09/04 12:34:25;;;;;;;;;;;23.10;73.60;;;;;;5048888;28;19920;-34
2023/09/04 12:36:59;;;;;;;;;;;23.10;73.70;;;;;;5066600;28;19916;-34
2023/09/04 12:39:25;;;;;;;;;;;23.00;73.60;;;;;;5075173;28;19979;-34
2023/09/04 12:41:58;;;;;;;;;;;23.00;73.60;;;;;;5077251;28;19909;-34
2023/09/04 12:44:24;;;;;;;;;;;23.00;73.60;;;;;;5082969;28;19934;-34
2023/09/04 12:46:51;;;;;;;;;;;23.00;73.50;;;;;;5081089;28;20281;-34
2023/09/04 12:49:17;;;;;;;;;;;23.00;73.60;;;;;;5072226;28;19962;-34
2023/09/04 12:51:43;;;;;;;;;;;23.00;73.50;;;;;;5061313;28;19912;-34
2023/09/04 12:54:09;;;;;;;;;;;23.00;73.60;;;;;;5067776;28;19967;-34
2023/09/04 12:56:35;;;;;;;;;;;23.00;73.60;;;;;;5075031;28;19912;-34
2023/09/04 12:59:01;;;;;;;;;;;23.00;73.70;;;;;;5076662;28;19908;-34
2023/09/04 13:01:27;;;;;;;;;;;23.00;73.80;;;;;;5074130;28;19934;-34
2023/09/04 13:03:52;;;;;;;;;;;23.00;73.70;;;;;;5078072;28;19912;-34
2023/09/04 13:06:19;;;;;;;;;;;23.00;73.80;;;;;;5081069;28;19921;-34
2023/09/04 13:08:46;;;;;;;;;;;23.00;73.80;;;;;;5069477;28;19919;-34
2023/09/04 13:11:13;;;;;;;;;;;22.90;73.70;;;;;;5076649;28;19912;-34
2023/09/04 13:13:41;;;;;;;;;;;23.00;73.80;;;;;;5069106;28;19938;-34
2023/09/04 13:16:07;;;;;;;;;;;23.00;73.90;;;;;;5083903;28;19920;-34
2023/09/04 13:18:33;;;;;;;;;;;22.90;73.80;;;;;;5058074;28;19948;-34
2023/09/04 13:20:59;;;;;;;;;;;23.00;73.90;;;;;;5076890;28;19920;-35
2023/09/04 13:23:26;;;;;;;;;;;23.00;74.10;;;;;;5073488;28;19916;-34
2023/09/04 13:25:52;;;;;;;;;;;23.00;74.10;;;;;;5078925;28;19924;-34
2023/09/04 13:28:18;;;;;;;;;;;23.00;74.20;;;;;;5066287;28;19921;-34
2023/09/04 13:30:44;;;;;;;;;;;22.90;74.10;;;;;;5069583;28;19919;-34
2023/09/04 13:33:10;;;;;;;;;;;23.00;74.30;;;;;;5083500;28;19930;-34
2023/09/04 13:35:36;;;;;;;;;;;23.00;74.10;;;;;;5080459;28;20416;-34
2023/09/04 13:38:02;;;;;;;;;;;22.90;74.10;;;;;;5078250;28;19931;-34
2023/09/04 13:40:28;;;;;;;;;;;23.00;74.30;;;;;;5074458;28;19919;-34
2023/09/04 13:42:54;;;;;;;;;;;22.90;74.20;;;;;;5072121;28;19909;-34
2023/09/04 13:45:19;;;;;;;;;;;23.00;74.30;;;;;;5072875;28;20469;-34
2023/09/04 13:47:45;;;;;;;;;;;23.00;74.40;;;;;;5065630;28;19959;-34
2023/09/04 13:50:11;;;;;;;;;;;23.00;74.30;;;;;;5053112;28;19913;-35
2023/09/04 13:52:37;;;;;;;;;;;23.00;74.30;;;;;;5074272;28;19912;-34
2023/09/04 13:55:03;;;;;;;;;;;23.00;74.20;;;;;;5083036;28;19904;-34
2023/09/04 13:57:30;;;;;;;;;;;23.00;74.20;;;;;;5080419;28;19912;-34
2023/09/04 13:59:56;;;;;;;;;;;23.00;74.10;;;;;;5065714;28;19919;-34
2023/09/04 14:02:22;;;;;;;;;;;23.00;74.20;;;;;;5066269;28;19912;-35
2023/09/04 14:04:48;;;;;;;;;;;23.00;74.20;;;;;;5075868;28;20281;-34
2023/09/04 14:07:14;;;;;;;;;;;23.00;74.30;;;;;;5078501;28;19912;-34
2023/09/04 14:09:40;;;;;;;;;;;23.10;74.50;;;;;;5081712;28;19915;-34
2023/09/04 14:12:06;;;;;;;;;;;23.10;74.40;;;;;;5067974;28;19909;-35
2023/09/04 14:14:32;;;;;;;;;;;23.10;74.30;;;;;;5072243;28;19938;-34